createdAt,value
2018-06-20T14:05:45.032Z,3.77
2018-06-20T14:08:15.604Z,5.10
2018-06-20T14:10:46.194Z,3.85
2018-06-20T14:13:17.029Z,3.20
2018-06-20T14:15:47.393Z,4.90
2018-06-20T14:18:17.929Z,5.08
2018-06-20T14:20:52.952Z,4.10
2018-06-20T14:23:23.305Z,2.80
2018-06-20T14:25:53.673Z,3.80
2018-06-20T14:28:23.900Z,3.08
2018-06-20T14:30:59.184Z,4.97
2018-06-20T14:33:34.423Z,3.50
2018-06-20T14:36:09.444Z,3.47
2018-06-20T14:38:44.563Z,3.05
2018-06-20T14:41:17.684Z,3.72
2018-06-20T14:43:52.696Z,4.00
2018-06-20T14:46:23.898Z,3.80
2018-06-20T14:48:54.062Z,3.00
2018-06-20T14:51:24.454Z,3.35
2018-06-20T14:53:54.569Z,3.85
2018-06-20T14:56:24.818Z,3.52
2018-06-20T14:58:55.117Z,4.08
2018-06-20T15:01:25.249Z,5.22
2018-06-20T15:03:55.557Z,4.42
2018-06-20T15:06:26.059Z,3.90
2018-06-20T15:08:56.358Z,3.20
2018-06-20T15:11:27.486Z,3.05
2018-06-20T15:13:57.474Z,2.77
2018-06-20T15:16:32.483Z,4.10
2018-06-20T15:19:02.650Z,3.62
2018-06-20T15:21:32.908Z,2.95
2018-06-20T15:24:03.272Z,3.30
2018-06-20T15:26:38.051Z,3.47
2018-06-20T15:29:13.232Z,2.58
2018-06-20T15:31:48.303Z,4.10
2018-06-20T15:34:23.666Z,2.80
2018-06-20T15:36:58.995Z,4.00
2018-06-20T15:39:30.665Z,4.40
2018-06-20T15:42:00.834Z,3.80
2018-06-20T15:44:31.061Z,2.80
2018-06-20T15:47:02.972Z,3.58
2018-06-20T15:49:33.150Z,3.62
2018-06-20T15:52:04.250Z,3.20
2018-06-20T15:54:34.434Z,3.83
2018-06-20T15:57:05.155Z,3.25
2018-06-20T15:59:35.345Z,2.60
2018-06-20T16:02:05.669Z,3.00
2018-06-20T16:04:35.031Z,3.40
2018-06-20T16:07:05.293Z,3.90
2018-06-20T16:09:40.843Z,3.65
2018-06-20T16:12:10.513Z,3.27
2018-06-20T16:14:43.063Z,3.15
2018-06-20T16:17:13.306Z,2.50
2018-06-20T16:20:49.124Z,3.27
2018-06-20T16:23:25.126Z,2.70
2018-06-20T16:26:02.117Z,2.87
2018-06-20T16:28:37.376Z,2.98
2018-06-20T16:31:07.862Z,3.60
2018-06-20T16:33:38.135Z,3.52
2018-06-20T16:36:08.514Z,2.90
2018-06-20T16:38:38.689Z,3.92
2018-06-20T16:41:09.321Z,3.77
2018-06-20T16:43:38.768Z,3.52
2018-06-20T16:46:08.990Z,3.80
2018-06-20T16:48:39.229Z,3.98
2018-06-20T16:51:09.670Z,3.58
2018-06-20T16:53:40.538Z,3.85
2018-06-20T16:56:10.972Z,3.12
2018-06-20T16:58:41.414Z,3.10
2018-06-20T17:01:16.642Z,3.22
2018-06-20T17:03:47.088Z,2.90
2018-06-20T17:06:17.589Z,3.52
2018-06-20T17:08:47.248Z,3.10
2018-06-20T17:11:17.408Z,3.37
2018-06-20T17:13:52.698Z,3.25
2018-06-20T17:16:28.618Z,3.75
2018-06-20T17:19:04.120Z,3.10
2018-06-20T17:21:39.447Z,3.87
2018-06-20T17:24:14.864Z,3.58
2018-06-20T17:26:45.297Z,4.08
2018-06-20T17:29:15.782Z,3.90
2018-06-20T17:31:47.534Z,3.77
2018-06-20T17:34:18.059Z,3.22
2018-06-20T17:36:48.504Z,3.40
2018-06-20T17:39:19.858Z,3.00
2018-06-20T17:41:50.448Z,3.40
2018-06-20T17:44:21.107Z,3.20
2018-06-20T17:46:51.307Z,3.10
2018-06-20T17:49:22.358Z,3.00
2018-06-20T17:51:52.966Z,3.80
2018-06-20T17:54:23.303Z,3.50
2018-06-20T17:56:53.956Z,3.80
2018-06-20T17:59:24.289Z,3.58
2018-06-20T18:01:55.331Z,3.35
2018-06-20T18:05:32.316Z,3.77
2018-06-20T18:08:08.251Z,4.85
2018-06-20T18:10:43.140Z,4.03
2018-06-20T18:13:14.725Z,4.30
2018-06-20T18:15:50.797Z,6.22
2018-06-20T18:18:21.274Z,5.10
2018-06-20T18:20:51.562Z,4.58
2018-06-20T18:23:21.980Z,5.03
2018-06-20T18:25:53.394Z,4.00
2018-06-20T18:28:23.472Z,4.83
2018-06-20T18:30:53.276Z,4.83
2018-06-20T18:33:23.430Z,5.05
2018-06-20T18:35:54.430Z,5.30
2018-06-20T18:38:24.798Z,5.50
2018-06-20T18:40:55.161Z,5.45
2018-06-20T18:43:25.023Z,5.05
2018-06-20T18:45:55.102Z,4.55
2018-06-20T18:48:27.536Z,5.00
2018-06-20T18:50:58.715Z,5.05
2018-06-20T18:53:29.104Z,5.53
2018-06-20T18:56:00.082Z,4.80
2018-06-20T18:58:35.706Z,5.00
2018-06-20T19:01:11.731Z,5.87
2018-06-20T19:03:47.145Z,4.92
2018-06-20T19:06:22.386Z,3.67
2018-06-20T19:08:55.449Z,3.57
2018-06-20T19:11:26.057Z,3.45
2018-06-20T19:13:56.768Z,3.65
2018-06-20T19:16:27.573Z,3.17
2018-06-20T19:18:57.836Z,3.60
2018-06-20T19:21:28.763Z,3.70
2018-06-20T19:24:01.462Z,3.30
2018-06-20T19:26:34.504Z,4.10
2018-06-20T19:29:04.978Z,3.63
2018-06-20T19:31:36.810Z,2.97
2018-06-20T19:34:07.391Z,4.70
2018-06-20T19:36:37.641Z,4.10
2018-06-20T19:39:12.590Z,3.73
2018-06-20T19:41:42.945Z,3.60
2018-06-20T19:44:18.500Z,3.43
2018-06-20T19:46:48.696Z,3.47
2018-06-20T19:49:19.104Z,4.17
2018-06-20T19:51:50.680Z,4.70
2018-06-20T19:54:22.604Z,3.90
2018-06-20T19:56:53.771Z,4.23
2018-06-20T19:59:23.487Z,4.03
2018-06-20T20:01:54.338Z,3.70
2018-06-20T20:04:25.409Z,4.50
2018-06-20T20:06:55.740Z,4.03
2018-06-20T20:09:26.591Z,4.90
2018-06-20T20:11:57.420Z,4.17
2018-06-20T20:14:27.967Z,4.80
2018-06-20T20:16:58.368Z,4.97
2018-06-20T20:19:29.354Z,4.80
2018-06-20T20:22:00.117Z,5.73
2018-06-20T20:24:32.071Z,5.83
2018-06-20T20:27:03.189Z,5.87
2018-06-20T20:29:35.505Z,5.50
2018-06-20T20:32:06.052Z,5.03
2018-06-20T20:34:36.765Z,5.13
2018-06-20T20:37:07.266Z,6.27
2018-06-20T20:39:39.163Z,5.43
2018-06-20T20:42:09.571Z,5.00
2018-06-20T20:44:39.959Z,5.20
2018-06-20T20:47:09.895Z,5.23
2018-06-20T20:49:40.194Z,4.83
2018-06-20T20:52:11.148Z,4.93
2018-06-20T20:54:42.918Z,5.13
2018-06-20T20:57:13.497Z,5.57
2018-06-20T20:59:44.979Z,5.17
2018-06-20T21:02:15.868Z,5.20
2018-06-20T21:04:46.618Z,4.87
2018-06-20T21:07:17.342Z,4.80
2018-06-20T21:09:47.794Z,4.83
2018-06-20T21:12:18.903Z,4.97
2018-06-20T21:14:52.515Z,4.80
2018-06-20T21:17:23.583Z,4.47
2018-06-20T21:19:54.885Z,5.00
2018-06-20T21:22:25.142Z,4.40
2018-06-20T21:24:55.608Z,5.00
2018-06-20T21:27:26.142Z,4.83
2018-06-20T21:29:56.579Z,4.53
2018-06-20T21:32:26.747Z,5.37
2018-06-20T21:34:58.270Z,4.40
2018-06-20T21:37:30.141Z,4.93
2018-06-20T21:40:01.569Z,4.70
2018-06-20T21:42:32.108Z,4.20
2018-06-20T21:45:02.551Z,4.30
2018-06-20T21:47:32.997Z,4.20
2018-06-20T21:50:04.234Z,3.70
2018-06-20T21:52:34.515Z,3.80
2018-06-20T21:55:05.044Z,3.93
2018-06-20T21:57:35.334Z,3.47
2018-06-20T22:00:07.490Z,3.80
2018-06-20T22:02:38.707Z,3.13
2018-06-20T22:05:10.031Z,3.13
2018-06-20T22:07:41.173Z,2.80
2018-06-20T22:10:12.676Z,2.80
2018-06-20T22:12:43.080Z,2.93
2018-06-20T22:15:13.401Z,2.87
2018-06-20T22:17:44.665Z,3.57
2018-06-20T22:20:15.795Z,3.00
2018-06-20T22:22:46.243Z,2.83
2018-06-20T22:25:16.737Z,3.50
2018-06-20T22:27:46.983Z,3.40
2018-06-20T22:30:19.106Z,3.50
2018-06-20T22:32:49.556Z,2.90
2018-06-20T22:35:19.544Z,3.73
2018-06-20T22:37:50.472Z,3.43
2018-06-20T22:40:21.095Z,2.60
2018-06-20T22:42:51.581Z,3.00
2018-06-20T22:45:22.045Z,3.03
2018-06-20T22:47:52.295Z,2.70
2018-06-20T22:50:23.279Z,3.07
2018-06-20T22:52:54.240Z,2.70
2018-06-20T22:55:24.747Z,3.00
2018-06-20T22:57:55.401Z,2.60
2018-06-20T23:00:26.492Z,2.90
2018-06-20T23:02:57.267Z,2.83
2018-06-20T23:05:27.548Z,2.60
2018-06-20T23:07:57.848Z,2.70
2018-06-20T23:10:28.463Z,3.20
2018-06-20T23:12:58.725Z,2.90
2018-06-20T23:15:29.479Z,3.47
2018-06-20T23:18:00.443Z,4.00
2018-06-20T23:20:31.139Z,4.43
2018-06-20T23:23:04.341Z,3.70
2018-06-20T23:25:34.796Z,4.77
2018-06-20T23:28:05.368Z,4.07
2018-06-20T23:30:35.529Z,4.90
2018-06-20T23:33:05.921Z,4.80
2018-06-20T23:35:36.439Z,4.70
2018-06-20T23:38:07.153Z,5.03
2018-06-20T23:40:37.720Z,5.60
2018-06-20T23:43:07.970Z,5.83
2018-06-20T23:45:38.310Z,5.93
2018-06-20T23:48:08.045Z,5.70
2018-06-20T23:50:38.601Z,4.90
2018-06-20T23:53:08.952Z,4.73
2018-06-20T23:55:39.132Z,5.23
2018-06-20T23:58:09.335Z,5.67
